This is the latest recevied weather packets stored in our database for station/object AI5KP-13. If no packets are shown the sender has not sent any weather packets the latest 10 day(s).
| Time | Temp. | Humidity | Pressure | Rain* | Wind** | Luminosity | Snow |
|---|---|---|---|---|---|---|---|
| 1777658515 | 18.89° C | 41% | 1018.5 hPa | 0 mm | - | 766 W/m² | - |
| 1777658212 | 20° C | 42% | 1018.5 hPa | 0 mm | - | 164 W/m² | - |
| 1777657909 | 20.56° C | 41% | 1018.4 hPa | 0 mm | - | 634 W/m² | - |
| 1777657606 | 20° C | 45% | 1018.3 hPa | 0 mm | - | 787 W/m² | - |
| 1777657303 | 18.89° C | 48% | 1018.5 hPa | 0 mm | - | 838 W/m² | - |
| 1777657001 | 20° C | 44% | 1018.4 hPa | 0 mm | - | 747 W/m² | - |
| 1777656698 | 19.44° C | 43% | 1018.9 hPa | 0 mm | - | 838 W/m² | - |
| 1777656394 | 19.44° C | 46% | 1018.8 hPa | 0 mm | - | 560 W/m² | - |
| 1777656089 | 20° C | 43% | 1019 hPa | 0 mm | - | 805 W/m² | - |
| 1777655785 | 19.44° C | 44% | 1018.9 hPa | 0 mm | - | 717 W/m² | - |
| 1777655482 | 19.44° C | 47% | 1018.8 hPa | 0 mm | - | 699 W/m² | - |
| 1777655179 | 18.89° C | 47% | 1018.9 hPa | 0 mm | - | 799 W/m² | - |
| 1777654875 | 19.44° C | 48% | 1019 hPa | 0 mm | - | 369 W/m² | - |
| 1777654573 | 19.44° C | 46% | 1019.1 hPa | 0 mm | - | 715 W/m² | - |
| 1777654270 | 18.89° C | 48% | 1018.8 hPa | 0 mm | - | 642 W/m² | - |
| 1777653968 | 18.89° C | 50% | 1018.8 hPa | 0 mm | - | 733 W/m² | - |
| 1777653665 | 18.33° C | 52% | 1019 hPa | 0 mm | - | 649 W/m² | - |
| 1777653361 | 17.78° C | 52% | 1019 hPa | 0 mm | - | 530 W/m² | - |
| 1777653058 | 17.22° C | 54% | 1018.9 hPa | 0 mm | - | 463 W/m² | - |
| 1777652754 | 18.33° C | 51% | 1019 hPa | 0 mm | - | 452 W/m² | - |
| 1777652452 | 17.78° C | 52% | 1018.8 hPa | 0 mm | - | 622 W/m² | - |
| 1777652149 | 18.33° C | 51% | 1018.9 hPa | 0 mm | - | 631 W/m² | - |
| 1777651846 | 17.78° C | 52% | 1018.8 hPa | 0 mm | - | 296 W/m² | - |
| 1777651542 | 17.78° C | 52% | 1018.8 hPa | 0 mm | - | 407 W/m² | - |
| 1777651239 | 16.67° C | 55% | 1018.7 hPa | 0 mm | - | 325 W/m² | - |
* Rain latest hour (hover to see other rain measurements)
** Current wind speed in m/s (hover to see current wind gust speed)